sensor_id;sensor_type;location;lat;lon;timestamp;P1;durP1;ratioP1;P2;durP2;ratioP2
27145;SDS011;17980;51.744;7.190;2022-07-29T00:00:43;4.13;;;0.60;;
27145;SDS011;17980;51.744;7.190;2022-07-29T00:03:11;2.97;;;0.37;;
27145;SDS011;17980;51.744;7.190;2022-07-29T00:05:50;1.00;;;0.30;;
27145;SDS011;17980;51.744;7.190;2022-07-29T00:08:18;4.70;;;0.50;;
27145;SDS011;17980;51.744;7.190;2022-07-29T00:10:46;1.93;;;0.50;;
27145;SDS011;17980;51.744;7.190;2022-07-29T00:13:13;5.03;;;0.40;;
27145;SDS011;17980;51.744;7.190;2022-07-29T00:15:41;2.83;;;1.00;;
27145;SDS011;17980;51.744;7.190;2022-07-29T00:18:08;2.00;;;0.40;;
27145;SDS011;17980;51.744;7.190;2022-07-29T00:20:36;1.73;;;0.60;;
27145;SDS011;17980;51.744;7.190;2022-07-29T00:23:03;4.00;;;0.47;;
27145;SDS011;17980;51.744;7.190;2022-07-29T00:25:30;4.60;;;0.40;;
27145;SDS011;17980;51.744;7.190;2022-07-29T00:27:57;5.80;;;0.53;;
27145;SDS011;17980;51.744;7.190;2022-07-29T00:30:25;3.17;;;0.60;;
27145;SDS011;17980;51.744;7.190;2022-07-29T00:32:52;3.77;;;0.47;;
27145;SDS011;17980;51.744;7.190;2022-07-29T00:35:19;1.47;;;0.47;;
27145;SDS011;17980;51.744;7.190;2022-07-29T00:38:05;1.47;;;0.33;;
27145;SDS011;17980;51.744;7.190;2022-07-29T00:40:32;4.27;;;0.77;;
27145;SDS011;17980;51.744;7.190;2022-07-29T00:42:59;4.33;;;0.40;;
27145;SDS011;17980;51.744;7.190;2022-07-29T00:45:27;0.50;;;0.30;;
27145;SDS011;17980;51.744;7.190;2022-07-29T00:47:56;2.43;;;0.50;;
27145;SDS011;17980;51.744;7.190;2022-07-29T00:50:23;4.10;;;0.50;;
27145;SDS011;17980;51.744;7.190;2022-07-29T00:52:51;0.77;;;0.40;;
27145;SDS011;17980;51.744;7.190;2022-07-29T00:55:18;1.53;;;0.57;;
27145;SDS011;17980;51.744;7.190;2022-07-29T00:57:46;4.63;;;0.40;;
27145;SDS011;17980;51.744;7.190;2022-07-29T01:00:15;2.10;;;0.50;;
27145;SDS011;17980;51.744;7.190;2022-07-29T01:02:45;2.90;;;0.63;;
27145;SDS011;17980;51.744;7.190;2022-07-29T01:05:14;3.60;;;0.70;;
27145;SDS011;17980;51.744;7.190;2022-07-29T01:07:44;3.80;;;0.50;;
27145;SDS011;17980;51.744;7.190;2022-07-29T01:10:14;1.57;;;0.40;;
27145;SDS011;17980;51.744;7.190;2022-07-29T01:12:42;1.93;;;0.50;;
27145;SDS011;17980;51.744;7.190;2022-07-29T01:15:11;1.90;;;0.40;;
27145;SDS011;17980;51.744;7.190;2022-07-29T01:17:40;2.47;;;0.60;;
27145;SDS011;17980;51.744;7.190;2022-07-29T01:20:14;1.53;;;0.30;;
27145;SDS011;17980;51.744;7.190;2022-07-29T01:28:48;3.70;;;0.40;;
27145;SDS011;17980;51.744;7.190;2022-07-29T01:31:22;4.33;;;0.50;;
27145;SDS011;17980;51.744;7.190;2022-07-29T01:34:04;2.10;;;0.60;;
27145;SDS011;17980;51.744;7.190;2022-07-29T01:36:35;5.67;;;0.50;;
27145;SDS011;17980;51.744;7.190;2022-07-29T01:39:06;1.43;;;0.60;;
27145;SDS011;17980;51.744;7.190;2022-07-29T01:41:37;1.37;;;0.43;;
27145;SDS011;17980;51.744;7.190;2022-07-29T01:44:18;3.00;;;0.40;;
27145;SDS011;17980;51.744;7.190;2022-07-29T01:46:50;1.50;;;0.50;;
27145;SDS011;17980;51.744;7.190;2022-07-29T01:49:21;1.87;;;0.57;;
27145;SDS011;17980;51.744;7.190;2022-07-29T01:52:03;2.87;;;0.60;;
27145;SDS011;17980;51.744;7.190;2022-07-29T01:54:35;2.73;;;0.40;;
27145;SDS011;17980;51.744;7.190;2022-07-29T01:57:07;4.13;;;0.40;;
27145;SDS011;17980;51.744;7.190;2022-07-29T01:59:37;1.37;;;0.47;;
27145;SDS011;17980;51.744;7.190;2022-07-29T02:02:17;2.90;;;0.50;;
27145;SDS011;17980;51.744;7.190;2022-07-29T02:04:47;3.37;;;0.50;;
27145;SDS011;17980;51.744;7.190;2022-07-29T02:07:17;5.50;;;0.60;;
27145;SDS011;17980;51.744;7.190;2022-07-29T02:09:46;3.07;;;0.57;;
27145;SDS011;17980;51.744;7.190;2022-07-29T02:12:15;3.30;;;0.60;;
27145;SDS011;17980;51.744;7.190;2022-07-29T02:14:44;0.80;;;0.40;;
27145;SDS011;17980;51.744;7.190;2022-07-29T02:17:14;4.67;;;0.43;;
27145;SDS011;17980;51.744;7.190;2022-07-29T02:19:55;1.10;;;0.50;;
27145;SDS011;17980;51.744;7.190;2022-07-29T02:22:28;1.37;;;0.70;;
27145;SDS011;17980;51.744;7.190;2022-07-29T02:24:57;1.80;;;0.50;;
27145;SDS011;17980;51.744;7.190;2022-07-29T02:27:26;3.57;;;0.40;;
27145;SDS011;17980;51.744;7.190;2022-07-29T02:29:55;1.63;;;0.40;;
27145;SDS011;17980;51.744;7.190;2022-07-29T02:32:26;5.27;;;0.63;;
27145;SDS011;17980;51.744;7.190;2022-07-29T02:34:56;4.97;;;0.53;;
27145;SDS011;17980;51.744;7.190;2022-07-29T02:37:25;1.90;;;0.67;;
27145;SDS011;17980;51.744;7.190;2022-07-29T02:39:55;4.37;;;0.70;;
27145;SDS011;17980;51.744;7.190;2022-07-29T02:42:24;3.43;;;0.50;;
27145;SDS011;17980;51.744;7.190;2022-07-29T02:44:53;6.70;;;0.73;;
27145;SDS011;17980;51.744;7.190;2022-07-29T02:47:23;2.63;;;0.43;;
27145;SDS011;17980;51.744;7.190;2022-07-29T02:49:55;1.27;;;0.70;;
27145;SDS011;17980;51.744;7.190;2022-07-29T02:52:39;3.80;;;0.80;;
27145;SDS011;17980;51.744;7.190;2022-07-29T02:55:10;5.07;;;0.60;;
27145;SDS011;17980;51.744;7.190;2022-07-29T02:57:54;1.47;;;0.57;;
27145;SDS011;17980;51.744;7.190;2022-07-29T03:00:24;9.60;;;1.17;;
27145;SDS011;17980;51.744;7.190;2022-07-29T03:02:53;3.13;;;0.47;;
27145;SDS011;17980;51.744;7.190;2022-07-29T03:05:24;3.03;;;0.50;;
27145;SDS011;17980;51.744;7.190;2022-07-29T03:07:54;4.23;;;0.77;;
27145;SDS011;17980;51.744;7.190;2022-07-29T03:10:23;3.23;;;0.60;;
27145;SDS011;17980;51.744;7.190;2022-07-29T03:12:52;3.37;;;0.50;;
27145;SDS011;17980;51.744;7.190;2022-07-29T03:15:21;2.33;;;0.50;;
27145;SDS011;17980;51.744;7.190;2022-07-29T03:17:50;3.00;;;0.50;;
27145;SDS011;17980;51.744;7.190;2022-07-29T03:20:18;4.10;;;0.50;;
27145;SDS011;17980;51.744;7.190;2022-07-29T03:23:04;5.90;;;0.70;;
27145;SDS011;17980;51.744;7.190;2022-07-29T03:25:31;5.20;;;0.73;;
27145;SDS011;17980;51.744;7.190;2022-07-29T03:27:59;3.80;;;0.50;;
27145;SDS011;17980;51.744;7.190;2022-07-29T03:30:26;2.00;;;0.60;;
27145;SDS011;17980;51.744;7.190;2022-07-29T03:32:55;3.47;;;0.73;;
27145;SDS011;17980;51.744;7.190;2022-07-29T03:35:23;3.03;;;0.70;;
27145;SDS011;17980;51.744;7.190;2022-07-29T03:37:50;0.77;;;0.57;;
27145;SDS011;17980;51.744;7.190;2022-07-29T03:40:20;2.83;;;0.63;;
27145;SDS011;17980;51.744;7.190;2022-07-29T03:42:50;11.00;;;0.87;;
27145;SDS011;17980;51.744;7.190;2022-07-29T03:45:20;5.20;;;0.70;;
27145;SDS011;17980;51.744;7.190;2022-07-29T03:47:49;2.83;;;0.60;;
27145;SDS011;17980;51.744;7.190;2022-07-29T03:50:19;1.13;;;0.50;;
27145;SDS011;17980;51.744;7.190;2022-07-29T03:52:47;4.47;;;0.70;;
27145;SDS011;17980;51.744;7.190;2022-07-29T03:55:15;2.03;;;0.40;;
27145;SDS011;17980;51.744;7.190;2022-07-29T03:57:43;4.90;;;0.53;;
27145;SDS011;17980;51.744;7.190;2022-07-29T04:00:13;1.33;;;0.60;;
27145;SDS011;17980;51.744;7.190;2022-07-29T04:02:42;3.43;;;0.80;;
27145;SDS011;17980;51.744;7.190;2022-07-29T04:05:12;2.47;;;0.60;;
27145;SDS011;17980;51.744;7.190;2022-07-29T04:07:52;5.60;;;0.70;;
27145;SDS011;17980;51.744;7.190;2022-07-29T04:10:19;1.57;;;0.67;;
27145;SDS011;17980;51.744;7.190;2022-07-29T04:12:46;2.63;;;0.50;;
27145;SDS011;17980;51.744;7.190;2022-07-29T04:15:14;4.37;;;0.53;;
27145;SDS011;17980;51.744;7.190;2022-07-29T04:17:41;4.10;;;0.87;;
27145;SDS011;17980;51.744;7.190;2022-07-29T04:20:10;2.50;;;0.53;;
27145;SDS011;17980;51.744;7.190;2022-07-29T04:22:38;2.97;;;0.60;;
27145;SDS011;17980;51.744;7.190;2022-07-29T04:25:07;3.70;;;0.70;;
27145;SDS011;17980;51.744;7.190;2022-07-29T04:27:34;3.83;;;0.67;;
27145;SDS011;17980;51.744;7.190;2022-07-29T04:30:05;4.43;;;0.60;;
27145;SDS011;17980;51.744;7.190;2022-07-29T04:32:33;7.30;;;0.90;;
27145;SDS011;17980;51.744;7.190;2022-07-29T04:35:00;6.20;;;0.60;;
27145;SDS011;17980;51.744;7.190;2022-07-29T04:37:28;3.27;;;1.00;;
27145;SDS011;17980;51.744;7.190;2022-07-29T04:39:54;4.67;;;0.70;;
27145;SDS011;17980;51.744;7.190;2022-07-29T04:42:21;1.63;;;0.50;;
27145;SDS011;17980;51.744;7.190;2022-07-29T04:44:49;4.03;;;0.90;;
27145;SDS011;17980;51.744;7.190;2022-07-29T04:47:16;3.33;;;0.60;;
27145;SDS011;17980;51.744;7.190;2022-07-29T04:49:43;9.90;;;0.70;;
27145;SDS011;17980;51.744;7.190;2022-07-29T04:52:11;3.43;;;0.53;;
27145;SDS011;17980;51.744;7.190;2022-07-29T04:54:38;1.57;;;0.50;;
27145;SDS011;17980;51.744;7.190;2022-07-29T04:57:05;4.37;;;0.80;;
27145;SDS011;17980;51.744;7.190;2022-07-29T04:59:32;1.83;;;0.40;;
27145;SDS011;17980;51.744;7.190;2022-07-29T05:02:00;1.13;;;0.50;;
27145;SDS011;17980;51.744;7.190;2022-07-29T05:04:27;0.90;;;0.50;;
27145;SDS011;17980;51.744;7.190;2022-07-29T05:06:54;2.53;;;0.57;;
27145;SDS011;17980;51.744;7.190;2022-07-29T05:09:21;4.87;;;0.70;;
27145;SDS011;17980;51.744;7.190;2022-07-29T05:11:49;1.17;;;0.57;;
27145;SDS011;17980;51.744;7.190;2022-07-29T05:14:16;3.30;;;0.70;;
27145;SDS011;17980;51.744;7.190;2022-07-29T05:16:43;2.50;;;0.80;;
27145;SDS011;17980;51.744;7.190;2022-07-29T05:19:11;4.20;;;0.63;;
27145;SDS011;17980;51.744;7.190;2022-07-29T05:21:38;3.30;;;0.70;;
27145;SDS011;17980;51.744;7.190;2022-07-29T05:24:05;8.60;;;0.60;;
27145;SDS011;17980;51.744;7.190;2022-07-29T05:26:33;4.47;;;0.63;;
27145;SDS011;17980;51.744;7.190;2022-07-29T05:29:01;2.00;;;0.70;;
27145;SDS011;17980;51.744;7.190;2022-07-29T05:31:28;3.27;;;0.73;;
27145;SDS011;17980;51.744;7.190;2022-07-29T05:33:55;4.77;;;0.70;;
27145;SDS011;17980;51.744;7.190;2022-07-29T05:36:22;3.07;;;0.90;;
27145;SDS011;17980;51.744;7.190;2022-07-29T05:38:50;4.17;;;0.93;;
27145;SDS011;17980;51.744;7.190;2022-07-29T05:41:18;4.73;;;0.80;;
27145;SDS011;17980;51.744;7.190;2022-07-29T05:43:48;1.57;;;0.80;;
27145;SDS011;17980;51.744;7.190;2022-07-29T05:46:15;2.53;;;0.90;;
27145;SDS011;17980;51.744;7.190;2022-07-29T05:48:42;9.63;;;1.30;;
27145;SDS011;17980;51.744;7.190;2022-07-29T05:51:10;5.40;;;0.80;;
27145;SDS011;17980;51.744;7.190;2022-07-29T05:53:37;2.10;;;0.70;;
27145;SDS011;17980;51.744;7.190;2022-07-29T05:56:05;1.77;;;0.87;;
27145;SDS011;17980;51.744;7.190;2022-07-29T05:58:33;2.00;;;0.80;;
27145;SDS011;17980;51.744;7.190;2022-07-29T06:01:00;4.70;;;1.00;;
27145;SDS011;17980;51.744;7.190;2022-07-29T06:03:28;1.83;;;0.80;;
27145;SDS011;17980;51.744;7.190;2022-07-29T06:05:55;3.13;;;1.10;;
27145;SDS011;17980;51.744;7.190;2022-07-29T06:08:23;5.40;;;0.80;;
27145;SDS011;17980;51.744;7.190;2022-07-29T06:11:08;2.83;;;0.80;;
27145;SDS011;17980;51.744;7.190;2022-07-29T06:13:35;5.00;;;1.43;;
27145;SDS011;17980;51.744;7.190;2022-07-29T06:16:15;7.47;;;1.10;;
27145;SDS011;17980;51.744;7.190;2022-07-29T06:18:42;4.30;;;1.10;;
27145;SDS011;17980;51.744;7.190;2022-07-29T06:21:10;4.03;;;1.00;;
27145;SDS011;17980;51.744;7.190;2022-07-29T06:23:37;4.40;;;0.90;;
27145;SDS011;17980;51.744;7.190;2022-07-29T06:26:05;4.93;;;1.10;;
27145;SDS011;17980;51.744;7.190;2022-07-29T06:28:32;4.87;;;0.90;;
27145;SDS011;17980;51.744;7.190;2022-07-29T06:31:00;4.83;;;1.00;;
27145;SDS011;17980;51.744;7.190;2022-07-29T06:33:45;3.17;;;0.93;;
27145;SDS011;17980;51.744;7.190;2022-07-29T06:36:12;3.83;;;1.40;;
27145;SDS011;17980;51.744;7.190;2022-07-29T06:38:39;1.60;;;0.73;;
27145;SDS011;17980;51.744;7.190;2022-07-29T06:41:07;3.83;;;0.90;;
27145;SDS011;17980;51.744;7.190;2022-07-29T06:43:38;4.00;;;1.00;;
27145;SDS011;17980;51.744;7.190;2022-07-29T06:46:18;4.50;;;1.00;;
27145;SDS011;17980;51.744;7.190;2022-07-29T06:48:45;1.13;;;0.80;;
27145;SDS011;17980;51.744;7.190;2022-07-29T06:51:13;2.60;;;1.00;;
27145;SDS011;17980;51.744;7.190;2022-07-29T06:53:40;6.73;;;0.90;;
27145;SDS011;17980;51.744;7.190;2022-07-29T06:56:08;1.90;;;1.00;;
27145;SDS011;17980;51.744;7.190;2022-07-29T06:58:35;3.53;;;1.00;;
27145;SDS011;17980;51.744;7.190;2022-07-29T07:01:04;3.90;;;1.10;;
27145;SDS011;17980;51.744;7.190;2022-07-29T07:03:32;2.43;;;0.70;;
27145;SDS011;17980;51.744;7.190;2022-07-29T07:06:00;5.37;;;0.80;;
27145;SDS011;17980;51.744;7.190;2022-07-29T07:08:27;5.07;;;0.90;;
27145;SDS011;17980;51.744;7.190;2022-07-29T07:10:54;3.07;;;1.00;;
27145;SDS011;17980;51.744;7.190;2022-07-29T07:13:33;4.07;;;1.00;;
27145;SDS011;17980;51.744;7.190;2022-07-29T07:16:01;1.50;;;0.97;;
27145;SDS011;17980;51.744;7.190;2022-07-29T07:18:29;5.53;;;1.00;;
27145;SDS011;17980;51.744;7.190;2022-07-29T07:20:57;2.83;;;1.17;;
27145;SDS011;17980;51.744;7.190;2022-07-29T07:23:24;3.40;;;1.10;;
27145;SDS011;17980;51.744;7.190;2022-07-29T07:25:52;2.13;;;0.97;;
27145;SDS011;17980;51.744;7.190;2022-07-29T07:28:31;3.50;;;1.07;;
27145;SDS011;17980;51.744;7.190;2022-07-29T07:30:58;2.47;;;1.13;;
27145;SDS011;17980;51.744;7.190;2022-07-29T07:33:26;3.07;;;1.30;;
27145;SDS011;17980;51.744;7.190;2022-07-29T07:35:53;6.63;;;1.40;;
27145;SDS011;17980;51.744;7.190;2022-07-29T07:38:41;7.27;;;1.57;;
27145;SDS011;17980;51.744;7.190;2022-07-29T07:41:08;2.23;;;1.20;;
27145;SDS011;17980;51.744;7.190;2022-07-29T07:43:35;10.03;;;1.37;;
27145;SDS011;17980;51.744;7.190;2022-07-29T07:46:03;5.17;;;1.10;;
27145;SDS011;17980;51.744;7.190;2022-07-29T07:48:31;2.07;;;1.00;;
27145;SDS011;17980;51.744;7.190;2022-07-29T07:51:00;3.63;;;1.00;;
27145;SDS011;17980;51.744;7.190;2022-07-29T07:53:27;1.30;;;0.70;;
27145;SDS011;17980;51.744;7.190;2022-07-29T07:55:55;3.57;;;0.97;;
27145;SDS011;17980;51.744;7.190;2022-07-29T07:58:22;3.17;;;0.93;;
27145;SDS011;17980;51.744;7.190;2022-07-29T08:01:08;5.43;;;1.00;;
27145;SDS011;17980;51.744;7.190;2022-07-29T08:03:36;6.60;;;1.20;;
27145;SDS011;17980;51.744;7.190;2022-07-29T08:06:04;2.33;;;0.90;;
27145;SDS011;17980;51.744;7.190;2022-07-29T08:08:32;2.93;;;0.70;;
27145;SDS011;17980;51.744;7.190;2022-07-29T08:10:59;8.10;;;1.37;;
27145;SDS011;17980;51.744;7.190;2022-07-29T08:13:38;3.33;;;1.10;;
27145;SDS011;17980;51.744;7.190;2022-07-29T08:16:06;7.73;;;1.03;;
27145;SDS011;17980;51.744;7.190;2022-07-29T08:18:38;5.33;;;1.50;;
27145;SDS011;17980;51.744;7.190;2022-07-29T08:21:18;3.67;;;1.03;;
27145;SDS011;17980;51.744;7.190;2022-07-29T08:23:45;7.40;;;1.10;;
27145;SDS011;17980;51.744;7.190;2022-07-29T08:26:15;2.57;;;1.00;;
27145;SDS011;17980;51.744;7.190;2022-07-29T08:31:21;2.77;;;1.10;;
27145;SDS011;17980;51.744;7.190;2022-07-29T08:33:48;7.63;;;1.50;;
27145;SDS011;17980;51.744;7.190;2022-07-29T08:36:15;3.17;;;0.90;;
27145;SDS011;17980;51.744;7.190;2022-07-29T08:39:01;6.70;;;1.33;;
27145;SDS011;17980;51.744;7.190;2022-07-29T08:41:29;4.23;;;1.03;;
27145;SDS011;17980;51.744;7.190;2022-07-29T08:44:15;4.33;;;0.90;;
27145;SDS011;17980;51.744;7.190;2022-07-29T08:46:43;2.87;;;1.10;;
27145;SDS011;17980;51.744;7.190;2022-07-29T08:49:10;1.63;;;0.77;;
27145;SDS011;17980;51.744;7.190;2022-07-29T08:51:39;7.33;;;1.00;;
27145;SDS011;17980;51.744;7.190;2022-07-29T08:54:19;4.27;;;1.00;;
27145;SDS011;17980;51.744;7.190;2022-07-29T08:56:48;5.93;;;1.10;;
27145;SDS011;17980;51.744;7.190;2022-07-29T08:59:17;2.90;;;1.03;;
27145;SDS011;17980;51.744;7.190;2022-07-29T09:01:46;2.30;;;1.00;;
27145;SDS011;17980;51.744;7.190;2022-07-29T09:04:29;4.60;;;1.20;;
27145;SDS011;17980;51.744;7.190;2022-07-29T09:06:58;3.47;;;0.70;;
27145;SDS011;17980;51.744;7.190;2022-07-29T09:09:29;3.80;;;0.90;;
27145;SDS011;17980;51.744;7.190;2022-07-29T09:11:57;4.33;;;1.00;;
27145;SDS011;17980;51.744;7.190;2022-07-29T09:14:25;3.77;;;1.10;;
27145;SDS011;17980;51.744;7.190;2022-07-29T09:16:53;2.20;;;1.00;;
27145;SDS011;17980;51.744;7.190;2022-07-29T09:19:23;3.80;;;1.10;;
27145;SDS011;17980;51.744;7.190;2022-07-29T09:22:07;3.03;;;0.80;;
27145;SDS011;17980;51.744;7.190;2022-07-29T09:24:42;3.17;;;1.03;;
27145;SDS011;17980;51.744;7.190;2022-07-29T09:27:17;4.03;;;1.10;;
27145;SDS011;17980;51.744;7.190;2022-07-29T09:30:00;7.23;;;1.50;;
27145;SDS011;17980;51.744;7.190;2022-07-29T09:32:29;2.07;;;1.20;;
27145;SDS011;17980;51.744;7.190;2022-07-29T09:35:14;5.07;;;1.10;;
27145;SDS011;17980;51.744;7.190;2022-07-29T09:37:43;5.27;;;1.43;;
27145;SDS011;17980;51.744;7.190;2022-07-29T09:40:13;2.23;;;1.43;;
27145;SDS011;17980;51.744;7.190;2022-07-29T09:42:42;4.10;;;1.00;;
27145;SDS011;17980;51.744;7.190;2022-07-29T09:45:10;3.90;;;1.40;;
27145;SDS011;17980;51.744;7.190;2022-07-29T09:47:43;3.63;;;1.20;;
27145;SDS011;17980;51.744;7.190;2022-07-29T09:50:34;6.30;;;1.67;;
27145;SDS011;17980;51.744;7.190;2022-07-29T09:53:03;4.83;;;1.40;;
27145;SDS011;17980;51.744;7.190;2022-07-29T09:55:30;3.30;;;1.40;;
27145;SDS011;17980;51.744;7.190;2022-07-29T09:58:15;3.70;;;1.73;;
27145;SDS011;17980;51.744;7.190;2022-07-29T10:00:43;6.43;;;1.43;;
27145;SDS011;17980;51.744;7.190;2022-07-29T10:03:11;11.90;;;1.70;;
27145;SDS011;17980;51.744;7.190;2022-07-29T10:05:39;7.40;;;1.87;;
27145;SDS011;17980;51.744;7.190;2022-07-29T10:08:08;4.77;;;1.83;;
27145;SDS011;17980;51.744;7.190;2022-07-29T10:10:38;4.27;;;1.50;;
27145;SDS011;17980;51.744;7.190;2022-07-29T10:13:08;1.30;;;1.20;;
27145;SDS011;17980;51.744;7.190;2022-07-29T10:15:39;11.57;;;1.80;;
27145;SDS011;17980;51.744;7.190;2022-07-29T10:18:06;4.97;;;2.37;;
27145;SDS011;17980;51.744;7.190;2022-07-29T10:20:35;5.57;;;2.00;;
27145;SDS011;17980;51.744;7.190;2022-07-29T10:23:03;17.33;;;2.83;;
27145;SDS011;17980;51.744;7.190;2022-07-29T10:25:31;11.07;;;2.80;;
27145;SDS011;17980;51.744;7.190;2022-07-29T10:27:59;9.43;;;2.43;;
27145;SDS011;17980;51.744;7.190;2022-07-29T10:30:26;4.37;;;1.73;;
27145;SDS011;17980;51.744;7.190;2022-07-29T10:33:17;5.13;;;2.53;;
27145;SDS011;17980;51.744;7.190;2022-07-29T10:35:57;7.47;;;2.37;;
27145;SDS011;17980;51.744;7.190;2022-07-29T10:38:51;3.63;;;1.43;;
27145;SDS011;17980;51.744;7.190;2022-07-29T10:41:29;3.53;;;2.50;;
27145;SDS011;17980;51.744;7.190;2022-07-29T10:44:03;5.27;;;2.27;;
27145;SDS011;17980;51.744;7.190;2022-07-29T10:46:45;6.77;;;2.30;;
27145;SDS011;17980;51.744;7.190;2022-07-29T10:49:13;5.10;;;2.63;;
27145;SDS011;17980;51.744;7.190;2022-07-29T10:51:51;5.53;;;2.33;;
27145;SDS011;17980;51.744;7.190;2022-07-29T10:57:27;4.57;;;2.20;;
27145;SDS011;17980;51.744;7.190;2022-07-29T11:02:58;3.97;;;2.43;;
27145;SDS011;17980;51.744;7.190;2022-07-29T11:05:26;4.60;;;2.33;;
27145;SDS011;17980;51.744;7.190;2022-07-29T11:10:49;4.97;;;1.97;;
27145;SDS011;17980;51.744;7.190;2022-07-29T11:13:45;4.10;;;2.03;;
27145;SDS011;17980;51.744;7.190;2022-07-29T11:16:16;3.63;;;1.87;;
27145;SDS011;17980;51.744;7.190;2022-07-29T11:21:49;4.23;;;1.97;;
27145;SDS011;17980;51.744;7.190;2022-07-29T11:24:29;4.43;;;2.07;;
27145;SDS011;17980;51.744;7.190;2022-07-29T11:27:14;5.30;;;1.70;;
27145;SDS011;17980;51.744;7.190;2022-07-29T11:29:50;5.07;;;1.93;;
27145;SDS011;17980;51.744;7.190;2022-07-29T11:32:20;5.00;;;1.77;;
27145;SDS011;17980;51.744;7.190;2022-07-29T11:34:49;3.10;;;2.00;;
27145;SDS011;17980;51.744;7.190;2022-07-29T11:37:37;3.33;;;1.93;;
27145;SDS011;17980;51.744;7.190;2022-07-29T11:40:08;3.80;;;1.90;;
27145;SDS011;17980;51.744;7.190;2022-07-29T11:42:45;3.23;;;2.00;;
27145;SDS011;17980;51.744;7.190;2022-07-29T11:45:17;3.50;;;1.90;;
27145;SDS011;17980;51.744;7.190;2022-07-29T11:47:53;6.60;;;2.40;;
27145;SDS011;17980;51.744;7.190;2022-07-29T11:50:31;3.60;;;1.93;;
27145;SDS011;17980;51.744;7.190;2022-07-29T11:53:00;7.57;;;1.90;;
27145;SDS011;17980;51.744;7.190;2022-07-29T11:55:29;7.93;;;2.53;;
27145;SDS011;17980;51.744;7.190;2022-07-29T11:58:00;5.07;;;2.27;;
27145;SDS011;17980;51.744;7.190;2022-07-29T12:00:28;5.70;;;1.80;;
27145;SDS011;17980;51.744;7.190;2022-07-29T12:02:57;3.97;;;1.70;;
27145;SDS011;17980;51.744;7.190;2022-07-29T12:05:34;6.80;;;1.57;;
27145;SDS011;17980;51.744;7.190;2022-07-29T12:08:05;3.43;;;1.80;;
27145;SDS011;17980;51.744;7.190;2022-07-29T12:10:36;5.17;;;1.60;;
27145;SDS011;17980;51.744;7.190;2022-07-29T12:13:04;3.83;;;1.60;;
27145;SDS011;17980;51.744;7.190;2022-07-29T12:15:32;3.37;;;1.60;;
27145;SDS011;17980;51.744;7.190;2022-07-29T12:18:09;6.27;;;1.70;;
27145;SDS011;17980;51.744;7.190;2022-07-29T12:20:46;11.77;;;1.50;;
27145;SDS011;17980;51.744;7.190;2022-07-29T12:23:14;9.80;;;1.30;;
27145;SDS011;17980;51.744;7.190;2022-07-29T12:25:42;4.60;;;1.60;;
27145;SDS011;17980;51.744;7.190;2022-07-29T12:28:11;4.30;;;1.30;;
27145;SDS011;17980;51.744;7.190;2022-07-29T12:30:44;3.10;;;1.40;;
27145;SDS011;17980;51.744;7.190;2022-07-29T12:33:15;3.93;;;1.27;;
27145;SDS011;17980;51.744;7.190;2022-07-29T12:35:45;3.13;;;1.33;;
27145;SDS011;17980;51.744;7.190;2022-07-29T12:38:14;8.63;;;1.33;;
27145;SDS011;17980;51.744;7.190;2022-07-29T12:40:43;5.67;;;1.20;;
27145;SDS011;17980;51.744;7.190;2022-07-29T12:43:13;4.37;;;0.97;;
27145;SDS011;17980;51.744;7.190;2022-07-29T12:45:43;5.50;;;1.23;;
27145;SDS011;17980;51.744;7.190;2022-07-29T12:48:14;5.80;;;1.17;;
27145;SDS011;17980;51.744;7.190;2022-07-29T12:50:55;2.73;;;0.90;;
27145;SDS011;17980;51.744;7.190;2022-07-29T12:53:24;3.80;;;0.90;;
27145;SDS011;17980;51.744;7.190;2022-07-29T12:55:53;4.00;;;1.10;;
27145;SDS011;17980;51.744;7.190;2022-07-29T12:58:29;3.33;;;0.90;;
27145;SDS011;17980;51.744;7.190;2022-07-29T13:01:02;4.00;;;0.97;;
27145;SDS011;17980;51.744;7.190;2022-07-29T13:03:48;2.20;;;1.00;;
27145;SDS011;17980;51.744;7.190;2022-07-29T13:06:38;3.20;;;1.00;;
27145;SDS011;17980;51.744;7.190;2022-07-29T13:09:09;1.83;;;0.73;;
27145;SDS011;17980;51.744;7.190;2022-07-29T13:11:41;3.60;;;0.80;;
27145;SDS011;17980;51.744;7.190;2022-07-29T13:14:10;4.10;;;1.00;;
27145;SDS011;17980;51.744;7.190;2022-07-29T13:19:34;4.70;;;0.70;;
27145;SDS011;17980;51.744;7.190;2022-07-29T13:22:14;2.63;;;1.00;;
27145;SDS011;17980;51.744;7.190;2022-07-29T13:24:50;2.03;;;1.07;;
27145;SDS011;17980;51.744;7.190;2022-07-29T13:27:19;3.17;;;0.90;;
27145;SDS011;17980;51.744;7.190;2022-07-29T13:30:02;4.00;;;0.90;;
27145;SDS011;17980;51.744;7.190;2022-07-29T13:32:31;3.17;;;0.80;;
27145;SDS011;17980;51.744;7.190;2022-07-29T13:35:00;1.60;;;1.00;;
27145;SDS011;17980;51.744;7.190;2022-07-29T13:37:29;4.30;;;1.20;;
27145;SDS011;17980;51.744;7.190;2022-07-29T13:39:58;4.93;;;0.83;;
27145;SDS011;17980;51.744;7.190;2022-07-29T13:42:26;4.60;;;1.20;;
27145;SDS011;17980;51.744;7.190;2022-07-29T13:45:15;9.43;;;1.13;;
27145;SDS011;17980;51.744;7.190;2022-07-29T13:47:43;7.47;;;1.20;;
27145;SDS011;17980;51.744;7.190;2022-07-29T13:50:10;10.17;;;1.00;;
27145;SDS011;17980;51.744;7.190;2022-07-29T13:52:37;3.07;;;1.10;;
27145;SDS011;17980;51.744;7.190;2022-07-29T13:55:06;2.80;;;0.90;;
27145;SDS011;17980;51.744;7.190;2022-07-29T13:57:35;6.50;;;0.93;;
27145;SDS011;17980;51.744;7.190;2022-07-29T14:00:03;5.37;;;0.80;;
27145;SDS011;17980;51.744;7.190;2022-07-29T14:02:32;4.70;;;0.90;;
27145;SDS011;17980;51.744;7.190;2022-07-29T14:04:59;4.93;;;1.07;;
27145;SDS011;17980;51.744;7.190;2022-07-29T14:07:26;2.23;;;0.97;;
27145;SDS011;17980;51.744;7.190;2022-07-29T14:09:54;6.57;;;0.97;;
27145;SDS011;17980;51.744;7.190;2022-07-29T14:12:21;4.90;;;1.00;;
27145;SDS011;17980;51.744;7.190;2022-07-29T14:14:48;3.47;;;1.00;;
27145;SDS011;17980;51.744;7.190;2022-07-29T14:17:16;4.10;;;0.80;;
27145;SDS011;17980;51.744;7.190;2022-07-29T14:19:43;3.90;;;1.10;;
27145;SDS011;17980;51.744;7.190;2022-07-29T14:22:10;6.53;;;0.90;;
27145;SDS011;17980;51.744;7.190;2022-07-29T14:24:38;8.53;;;0.77;;
27145;SDS011;17980;51.744;7.190;2022-07-29T14:27:06;13.70;;;1.17;;
27145;SDS011;17980;51.744;7.190;2022-07-29T14:29:33;6.43;;;1.07;;
27145;SDS011;17980;51.744;7.190;2022-07-29T14:32:01;6.47;;;0.90;;
27145;SDS011;17980;51.744;7.190;2022-07-29T14:34:29;7.20;;;1.30;;
27145;SDS011;17980;51.744;7.190;2022-07-29T14:36:56;7.07;;;0.87;;
27145;SDS011;17980;51.744;7.190;2022-07-29T14:39:23;8.80;;;0.90;;
27145;SDS011;17980;51.744;7.190;2022-07-29T14:41:51;3.17;;;1.00;;
27145;SDS011;17980;51.744;7.190;2022-07-29T14:44:18;4.23;;;0.93;;
27145;SDS011;17980;51.744;7.190;2022-07-29T14:46:46;5.90;;;0.90;;
27145;SDS011;17980;51.744;7.190;2022-07-29T14:49:13;7.53;;;1.13;;
27145;SDS011;17980;51.744;7.190;2022-07-29T14:51:40;4.77;;;0.70;;
27145;SDS011;17980;51.744;7.190;2022-07-29T14:54:08;7.73;;;0.90;;
27145;SDS011;17980;51.744;7.190;2022-07-29T14:56:35;2.30;;;0.80;;
27145;SDS011;17980;51.744;7.190;2022-07-29T14:59:02;6.07;;;1.07;;
27145;SDS011;17980;51.744;7.190;2022-07-29T15:01:30;5.67;;;1.00;;
27145;SDS011;17980;51.744;7.190;2022-07-29T15:03:57;2.63;;;0.97;;
27145;SDS011;17980;51.744;7.190;2022-07-29T15:06:26;7.50;;;1.20;;
27145;SDS011;17980;51.744;7.190;2022-07-29T15:08:53;5.17;;;1.30;;
27145;SDS011;17980;51.744;7.190;2022-07-29T15:11:20;5.70;;;1.10;;
27145;SDS011;17980;51.744;7.190;2022-07-29T15:13:48;4.97;;;1.00;;
27145;SDS011;17980;51.744;7.190;2022-07-29T15:16:15;3.37;;;1.00;;
27145;SDS011;17980;51.744;7.190;2022-07-29T15:18:42;6.23;;;1.10;;
27145;SDS011;17980;51.744;7.190;2022-07-29T15:21:09;6.93;;;1.13;;
27145;SDS011;17980;51.744;7.190;2022-07-29T15:23:37;6.90;;;1.00;;
27145;SDS011;17980;51.744;7.190;2022-07-29T15:26:04;5.30;;;0.80;;
27145;SDS011;17980;51.744;7.190;2022-07-29T15:28:32;5.30;;;0.90;;
27145;SDS011;17980;51.744;7.190;2022-07-29T15:30:59;4.27;;;0.90;;